Time;durP1;ratioP1;P1;durP2;ratioP2;P2;SDS_P1;SDS_P2;PMS_P1;PMS_P2;Temp;Humidity;BMP_temperature;BMP_pressure;BME280_temperature;BME280_humidity;BME280_pressure;Samples;Min_cycle;Max_cycle;Signal;HPM_P1;HPM_P2
2023/09/12 00:02:23;;;;;;;34.17;27.45;;;22.30;99.90;;;;;;5094715;27;20042;-81
2023/09/12 00:04:50;;;;;;;32.15;27.50;;;22.40;99.90;;;;;;5088642;27;20039;-83
2023/09/12 00:07:16;;;;;;;34.13;27.08;;;22.40;99.90;;;;;;5111196;27;20552;-81
2023/09/12 00:09:42;;;;;;;30.98;27.27;;;22.30;99.90;;;;;;5098449;27;20047;-84
2023/09/12 00:12:08;;;;;;;37.58;27.73;;;22.40;99.90;;;;;;5110910;28;20055;-82
2023/09/12 00:14:33;;;;;;;34.17;27.77;;;22.40;99.90;;;;;;5083497;27;20035;-81
2023/09/12 00:17:00;;;;;;;39.45;28.77;;;22.30;99.90;;;;;;5116361;27;20035;-80
2023/09/12 00:19:25;;;;;;;32.80;27.17;;;22.40;99.90;;;;;;5094399;28;20508;-81
2023/09/12 00:21:53;;;;;;;40.45;28.42;;;22.40;99.90;;;;;;5115574;27;20035;-80
2023/09/12 00:24:18;;;;;;;34.70;27.95;;;22.40;99.90;;;;;;5112056;27;20450;-79
2023/09/12 00:26:44;;;;;;;34.88;27.92;;;22.50;99.90;;;;;;5107217;28;20054;-81
2023/09/12 00:29:10;;;;;;;45.40;31.77;;;22.40;99.90;;;;;;5096171;27;20040;-80
2023/09/12 00:31:36;;;;;;;44.88;29.90;;;22.40;99.90;;;;;;5111159;27;20043;-80
2023/09/12 00:34:02;;;;;;;33.42;26.27;;;22.50;99.90;;;;;;5095374;28;20047;-81
2023/09/12 00:36:27;;;;;;;34.25;27.52;;;22.50;99.90;;;;;;5114199;27;20091;-81
2023/09/12 00:38:53;;;;;;;37.65;28.17;;;22.40;99.90;;;;;;5123434;27;20035;-82
2023/09/12 00:41:19;;;;;;;35.05;27.80;;;22.40;99.90;;;;;;5123954;27;20110;-81
2023/09/12 00:43:44;;;;;;;34.20;28.17;;;22.50;99.90;;;;;;5080481;27;20039;-82
2023/09/12 00:46:10;;;;;;;37.15;28.35;;;22.50;99.90;;;;;;5107446;28;20372;-81
2023/09/12 00:48:37;;;;;;;38.42;29.83;;;22.50;99.90;;;;;;5077771;28;20192;-82
2023/09/12 00:51:04;;;;;;;35.63;28.67;;;22.50;99.90;;;;;;5112054;27;20047;-82
2023/09/12 00:53:30;;;;;;;39.58;29.35;;;22.50;99.90;;;;;;5095108;27;20024;-82
2023/09/12 00:55:58;;;;;;;37.92;28.08;;;22.40;99.90;;;;;;5117950;27;20481;-81
2023/09/12 00:58:25;;;;;;;33.67;27.67;;;22.50;99.90;;;;;;5113850;27;20549;-81
2023/09/12 01:00:51;;;;;;;36.03;28.50;;;22.40;99.90;;;;;;5092344;28;20052;-81
2023/09/12 01:03:17;;;;;;;39.58;28.33;;;22.40;99.90;;;;;;5111499;27;20036;-82
2023/09/12 01:05:44;;;;;;;35.53;28.50;;;22.40;99.90;;;;;;5107119;27;20127;-82
2023/09/12 01:08:10;;;;;;;37.58;27.73;;;22.50;99.90;;;;;;5088155;28;20040;-81
2023/09/12 01:10:36;;;;;;;32.17;26.83;;;22.40;99.90;;;;;;5104970;28;20035;-81
2023/09/12 01:13:02;;;;;;;31.92;26.45;;;22.40;99.90;;;;;;5094978;28;20047;-80
2023/09/12 01:15:28;;;;;;;32.08;26.42;;;22.40;99.90;;;;;;5122000;27;20525;-83
2023/09/12 01:17:54;;;;;;;32.47;27.23;;;22.50;99.90;;;;;;5115324;27;20156;-83
2023/09/12 01:20:25;;;;;;;33.33;26.40;;;22.40;99.90;;;;;;5117637;27;20039;-82
2023/09/12 01:22:57;;;;;;;37.75;28.45;;;22.50;99.90;;;;;;5096006;28;20048;-83
2023/09/12 01:25:26;;;;;;;41.17;29.15;;;22.30;99.90;;;;;;5095492;28;20394;-82
2023/09/12 01:27:54;;;;;;;42.05;30.52;;;22.40;99.90;;;;;;5101032;27;20382;-82
2023/09/12 01:30:25;;;;;;;47.80;32.17;;;22.30;99.90;;;;;;5097235;27;20531;-83
2023/09/12 01:32:51;;;;;;;45.53;30.45;;;22.30;99.90;;;;;;5098330;28;20475;-83
2023/09/12 01:35:17;;;;;;;53.45;33.03;;;22.30;99.90;;;;;;5112052;27;20502;-82
2023/09/12 01:37:43;;;;;;;39.67;27.27;;;22.30;99.90;;;;;;5094477;28;20048;-82
2023/09/12 01:40:10;;;;;;;38.28;28.35;;;22.30;99.90;;;;;;5093697;28;20043;-82
2023/09/12 01:42:40;;;;;;;41.80;29.58;;;22.40;99.90;;;;;;5094329;28;20043;-82
2023/09/12 01:45:09;;;;;;;53.10;32.38;;;22.30;99.90;;;;;;5094270;28;20380;-82
2023/09/12 01:47:35;;;;;;;44.72;32.28;;;22.40;99.90;;;;;;5094008;28;20031;-82
2023/09/12 01:50:03;;;;;;;46.15;31.65;;;22.40;99.90;;;;;;5085420;28;20060;-83
2023/09/12 01:52:29;;;;;;;53.63;34.40;;;22.40;99.90;;;;;;5093473;28;20507;-81
2023/09/12 01:54:56;;;;;;;46.30;32.28;;;22.40;99.90;;;;;;5094892;28;20039;-81
2023/09/12 01:57:22;;;;;;;54.60;34.78;;;22.40;99.90;;;;;;5076048;28;20211;-82
2023/09/12 01:59:48;;;;;;;49.13;33.40;;;22.40;99.90;;;;;;5076415;28;20127;-81
2023/09/12 02:02:18;;;;;;;45.67;33.10;;;22.40;99.90;;;;;;5087167;28;20043;-82
2023/09/12 02:05:11;;;;;;;42.58;30.85;;;22.40;99.90;;;;;;5067917;28;20043;-83
2023/09/12 02:07:38;;;;;;;51.95;34.20;;;22.40;99.90;;;;;;5064469;28;20103;-82
2023/09/12 02:10:07;;;;;;;53.22;34.45;;;22.50;99.90;;;;;;5057642;28;20044;-83
2023/09/12 02:12:32;;;;;;;58.22;35.60;;;22.10;99.90;;;;;;5078973;28;20036;-81
2023/09/12 02:14:58;;;;;;;51.65;35.88;;;22.40;99.90;;;;;;5086451;28;20112;-81
2023/09/12 02:17:24;;;;;;;46.05;32.72;;;22.40;99.90;;;;;;5075504;28;20067;-83
2023/09/12 02:19:50;;;;;;;43.63;33.15;;;22.40;99.90;;;;;;5091858;28;20040;-81
2023/09/12 02:22:49;;;;;;;48.97;33.25;;;22.40;99.90;;;;;;5067474;28;20127;-82
2023/09/12 02:25:15;;;;;;;52.83;33.80;;;22.30;99.90;;;;;;5080367;28;20512;-82
2023/09/12 02:27:40;;;;;;;52.25;34.42;;;22.40;99.90;;;;;;5093740;28;20074;-82
2023/09/12 02:30:06;;;;;;;53.30;35.10;;;22.20;99.90;;;;;;5074766;28;20043;-81
2023/09/12 02:32:32;;;;;;;63.70;35.92;;;22.30;99.90;;;;;;5089422;28;20103;-82
2023/09/12 02:34:59;;;;;;;60.08;35.42;;;22.20;99.90;;;;;;5105354;28;20118;-82
2023/09/12 02:37:25;;;;;;;47.13;32.63;;;22.30;99.90;;;;;;5092804;28;20519;-82
2023/09/12 02:39:51;;;;;;;54.65;34.83;;;22.20;99.90;;;;;;5091157;28;20097;-81
2023/09/12 02:42:16;;;;;;;59.95;35.22;;;22.30;99.90;;;;;;5109775;28;20085;-82
2023/09/12 02:44:48;;;;;;;51.53;35.70;;;22.10;99.90;;;;;;5087397;28;20060;-82
2023/09/12 02:47:14;;;;;;;57.83;35.60;;;22.20;99.90;;;;;;5086185;28;20454;-80
2023/09/12 02:49:40;;;;;;;42.00;31.70;;;22.20;99.90;;;;;;5101412;27;20131;-82
2023/09/12 02:52:05;;;;;;;44.20;31.00;;;22.30;99.90;;;;;;5110409;28;20624;-81
2023/09/12 02:54:31;;;;;;;49.80;33.58;;;22.30;99.90;;;;;;5092880;28;20560;-80
2023/09/12 02:56:57;;;;;;;57.38;35.30;;;22.20;99.90;;;;;;5112446;27;20044;-81
2023/09/12 02:59:23;;;;;;;49.05;34.28;;;22.20;99.90;;;;;;5072769;28;20043;-80
2023/09/12 03:01:49;;;;;;;57.20;34.05;;;22.10;99.90;;;;;;5092801;28;20040;-81
2023/09/12 03:04:14;;;;;;;68.93;38.25;;;22.10;99.90;;;;;;5092193;27;20115;-80
2023/09/12 03:06:40;;;;;;;65.18;36.83;;;22.10;99.90;;;;;;5092589;27;20110;-80
2023/09/12 03:09:06;;;;;;;53.53;35.35;;;22.00;99.90;;;;;;5075538;28;20044;-81
2023/09/12 03:11:32;;;;;;;48.63;33.53;;;22.00;99.90;;;;;;5108315;28;20043;-80
2023/09/12 03:13:58;;;;;;;42.97;32.75;;;22.00;99.90;;;;;;5103302;28;20046;-81
2023/09/12 03:16:24;;;;;;;62.80;36.90;;;22.00;99.90;;;;;;5093544;28;20063;-81
2023/09/12 03:18:50;;;;;;;68.47;37.70;;;22.10;99.90;;;;;;5092134;28;20539;-81
2023/09/12 03:21:15;;;;;;;44.83;32.33;;;22.10;99.90;;;;;;5071120;28;20096;-81
2023/09/12 03:23:41;;;;;;;55.70;34.92;;;22.20;99.90;;;;;;5096824;28;20039;-81
2023/09/12 03:26:07;;;;;;;42.05;31.27;;;22.10;99.90;;;;;;5104702;27;20085;-82
2023/09/12 03:28:33;;;;;;;45.72;31.38;;;22.10;99.90;;;;;;5080147;27;20040;-80
2023/09/12 03:31:14;;;;;;;43.58;29.95;;;22.10;99.90;;;;;;5114149;27;20134;-81
2023/09/12 03:33:40;;;;;;;41.67;30.30;;;22.10;99.90;;;;;;5116873;27;20047;-81
2023/09/12 03:36:07;;;;;;;42.58;31.27;;;22.20;99.90;;;;;;5131874;27;20035;-82
2023/09/12 03:38:34;;;;;;;45.50;30.75;;;22.30;99.90;;;;;;5097944;28;20036;-82
2023/09/12 03:41:00;;;;;;;40.67;31.42;;;22.20;99.90;;;;;;5109435;28;20036;-82
2023/09/12 03:43:25;;;;;;;48.50;32.58;;;22.30;99.90;;;;;;5114485;27;20046;-83
2023/09/12 03:45:51;;;;;;;61.72;34.00;;;22.20;99.90;;;;;;5096696;28;20059;-82
2023/09/12 03:48:17;;;;;;;43.50;30.95;;;22.20;99.90;;;;;;5107485;27;20560;-83
2023/09/12 03:50:44;;;;;;;44.05;31.15;;;22.30;99.90;;;;;;5091692;27;20061;-83
2023/09/12 03:53:10;;;;;;;66.78;34.85;;;22.30;99.90;;;;;;5104567;27;20103;-85
2023/09/12 03:55:36;;;;;;;64.82;35.42;;;22.30;99.90;;;;;;5115130;27;20043;-83
2023/09/12 03:58:02;;;;;;;62.70;34.53;;;22.20;99.90;;;;;;5100799;27;20034;-83
2023/09/12 04:00:28;;;;;;;63.45;34.00;;;22.10;99.90;;;;;;5117994;27;20042;-82
2023/09/12 04:02:53;;;;;;;64.30;34.97;;;22.30;99.90;;;;;;5098102;27;20039;-83
2023/09/12 04:05:19;;;;;;;47.15;32.55;;;22.10;99.90;;;;;;5084021;27;20695;-82
2023/09/12 04:07:45;;;;;;;43.17;30.35;;;22.20;99.90;;;;;;5112660;27;20050;-83
2023/09/12 04:10:11;;;;;;;41.42;29.63;;;22.00;99.90;;;;;;5098375;27;20043;-83
2023/09/12 04:12:37;;;;;;;46.63;30.20;;;22.10;99.90;;;;;;5086940;27;20479;-84
2023/09/12 04:15:03;;;;;;;36.67;27.10;;;21.90;99.90;;;;;;5108143;27;20043;-84
2023/09/12 04:17:28;;;;;;;40.25;28.48;;;21.90;99.90;;;;;;5083146;27;20068;-82
2023/09/12 04:19:54;;;;;;;38.92;28.58;;;22.00;99.90;;;;;;5099011;27;20043;-82
2023/09/12 04:22:20;;;;;;;43.33;30.25;;;21.90;99.90;;;;;;5099251;27;20035;-82
2023/09/12 04:24:45;;;;;;;38.55;28.05;;;21.90;99.90;;;;;;5108904;27;20413;-84
2023/09/12 04:27:11;;;;;;;39.72;29.15;;;21.80;99.90;;;;;;5103820;27;20042;-85
2023/09/12 04:29:37;;;;;;;42.05;28.40;;;21.80;99.90;;;;;;5110253;27;20039;-84
2023/09/12 04:32:05;;;;;;;35.17;28.10;;;21.70;99.90;;;;;;5113084;27;20562;-84
2023/09/12 04:34:31;;;;;;;47.63;30.63;;;21.80;99.90;;;;;;5102882;27;20041;-84
2023/09/12 04:36:57;;;;;;;45.22;29.65;;;21.70;99.90;;;;;;5099985;27;20486;-83
2023/09/12 04:39:22;;;;;;;35.88;27.13;;;21.70;99.90;;;;;;5111394;27;20037;-81
2023/09/12 04:41:48;;;;;;;36.15;27.88;;;21.60;99.90;;;;;;5120349;27;20539;-82
2023/09/12 04:44:15;;;;;;;35.45;25.95;;;21.50;99.90;;;;;;5099581;27;20475;-84
2023/09/12 04:46:44;;;;;;;37.05;27.95;;;21.50;99.90;;;;;;5134996;27;20038;-84
2023/09/12 04:49:09;;;;;;;36.90;27.05;;;21.60;99.90;;;;;;5136528;27;20479;-81
2023/09/12 04:51:35;;;;;;;37.78;27.40;;;21.50;99.90;;;;;;5117880;27;20042;-84
2023/09/12 04:54:01;;;;;;;45.63;29.58;;;21.50;99.90;;;;;;5080839;27;20050;-81
2023/09/12 04:56:28;;;;;;;33.70;26.02;;;21.50;99.90;;;;;;5109925;27;20035;-83
2023/09/12 04:58:54;;;;;;;37.15;26.67;;;21.40;99.90;;;;;;5115415;27;20127;-80
2023/09/12 05:01:19;;;;;;;33.58;25.90;;;21.50;99.90;;;;;;5104210;27;20648;-83
2023/09/12 05:03:47;;;;;;;35.53;27.92;;;21.60;99.90;;;;;;5091860;27;20031;-83
2023/09/12 05:06:13;;;;;;;37.85;28.15;;;21.50;99.90;;;;;;5100940;27;20027;-81
2023/09/12 05:08:39;;;;;;;37.15;28.73;;;21.50;99.90;;;;;;5114925;27;20092;-83
2023/09/12 05:11:05;;;;;;;57.95;32.35;;;21.60;99.90;;;;;;5106287;27;20031;-81
2023/09/12 05:13:30;;;;;;;39.63;27.15;;;21.50;99.90;;;;;;5103579;27;20063;-82
2023/09/12 05:15:56;;;;;;;37.33;27.17;;;21.50;99.90;;;;;;5114562;27;20039;-85
2023/09/12 05:18:23;;;;;;;53.30;31.83;;;21.40;99.90;;;;;;5098843;27;20126;-82
2023/09/12 05:20:49;;;;;;;37.75;27.63;;;21.50;99.90;;;;;;5106052;27;20035;-84
2023/09/12 05:23:16;;;;;;;37.85;27.50;;;21.60;99.90;;;;;;5104075;27;20050;-84
2023/09/12 05:25:42;;;;;;;35.78;27.05;;;21.60;99.90;;;;;;5085516;27;20079;-65
2023/09/12 05:29:05;;;;;;;;;;;;;;;;;;;;;
2023/09/12 05:31:41;;;;;;;36.45;26.73;;;21.30;99.90;;;;;;5116078;27;20495;-84
2023/09/12 05:37:27;;;;;;;36.25;26.90;;;21.60;99.90;;;;;;5092498;27;20061;-76
2023/09/12 05:39:53;;;;;;;37.25;27.05;;;21.50;99.90;;;;;;5117733;27;20042;-76
2023/09/12 05:42:20;;;;;;;39.22;27.77;;;21.60;99.90;;;;;;5095346;27;20124;-66
2023/09/12 05:45:03;;;;;;;45.30;29.88;;;21.60;99.90;;;;;;5102590;27;20039;-87
2023/09/12 05:47:32;;;;;;;58.25;33.72;;;21.60;99.90;;;;;;5111642;27;20039;-86
2023/09/12 05:49:59;;;;;;;57.22;35.30;;;21.50;99.90;;;;;;5100919;27;20043;-87
2023/09/12 05:52:25;;;;;;;49.72;33.60;;;21.70;99.90;;;;;;5102674;27;20053;-86
2023/09/12 05:54:50;;;;;;;52.33;34.13;;;21.80;99.90;;;;;;5128516;27;20043;-86
2023/09/12 05:57:16;;;;;;;106.18;42.40;;;21.90;99.90;;;;;;5112051;27;20039;-86
2023/09/12 05:59:42;;;;;;;60.08;33.22;;;22.00;99.90;;;;;;5082282;27;20042;-85
2023/09/12 06:02:10;;;;;;;82.57;36.75;;;22.10;99.90;;;;;;5102893;27;20510;-86
2023/09/12 06:04:43;;;;;;;98.13;39.85;;;21.90;99.90;;;;;;5088782;27;20035;-87
2023/09/12 06:07:09;;;;;;;87.18;34.95;;;21.90;99.90;;;;;;5115779;27;20035;-87
2023/09/12 06:09:34;;;;;;;117.53;35.05;;;22.30;99.90;;;;;;5107399;27;20079;-87
2023/09/12 06:12:00;;;;;;;75.95;35.65;;;22.20;99.90;;;;;;5104175;27;20474;-86
2023/09/12 06:14:26;;;;;;;95.32;35.38;;;22.30;99.90;;;;;;5082014;27;20038;-86
2023/09/12 06:16:52;;;;;;;95.63;33.92;;;22.10;99.90;;;;;;5095099;27;20077;-85
2023/09/12 06:19:19;;;;;;;69.75;31.38;;;22.10;99.90;;;;;;5098702;27;20103;-84
2023/09/12 06:21:45;;;;;;;96.20;34.80;;;22.20;99.90;;;;;;5080825;27;20039;-84
2023/09/12 06:24:16;;;;;;;107.82;40.67;;;22.20;99.90;;;;;;5098775;27;20043;-83
2023/09/12 06:26:44;;;;;;;82.20;37.00;;;22.20;99.90;;;;;;5098452;27;20437;-85
2023/09/12 06:29:10;;;;;;;108.55;38.83;;;22.20;99.90;;;;;;5098123;27;20039;-85
2023/09/12 06:31:36;;;;;;;71.68;33.92;;;22.40;99.90;;;;;;5094975;27;20108;-85
2023/09/12 06:34:02;;;;;;;67.28;32.28;;;22.50;99.90;;;;;;5108405;27;20082;-86
2023/09/12 06:36:31;;;;;;;68.03;31.90;;;22.40;99.90;;;;;;5097662;27;20095;-86
2023/09/12 06:38:59;;;;;;;83.50;32.45;;;22.40;99.90;;;;;;5097558;27;20161;-85
2023/09/12 06:41:25;;;;;;;93.78;33.38;;;22.10;99.90;;;;;;5099851;27;20078;-86
2023/09/12 06:43:51;;;;;;;145.73;35.40;;;22.20;99.90;;;;;;5118291;27;20054;-87
2023/09/12 06:46:17;;;;;;;150.13;37.00;;;22.30;99.90;;;;;;5116131;27;20031;-86
2023/09/12 06:48:46;;;;;;;80.28;35.17;;;22.30;99.90;;;;;;5109784;27;20047;-86
2023/09/12 06:51:12;;;;;;;168.20;37.40;;;22.40;99.90;;;;;;5118109;27;20043;-87
2023/09/12 06:53:39;;;;;;;134.68;36.65;;;22.30;99.90;;;;;;5103992;27;20036;-86
2023/09/12 06:56:05;;;;;;;169.48;38.17;;;22.50;99.90;;;;;;5095581;27;20078;-86
2023/09/12 06:58:32;;;;;;;100.15;37.00;;;22.40;99.90;;;;;;5103640;27;20064;-84
2023/09/12 07:01:02;;;;;;;92.65;36.30;;;22.40;99.90;;;;;;5095049;27;20035;-86
2023/09/12 07:03:36;;;;;;;128.50;36.10;;;22.40;99.90;;;;;;5081996;27;20050;-86
2023/09/12 07:06:02;;;;;;;124.63;39.10;;;22.50;99.90;;;;;;5083005;28;20031;-84
2023/09/12 07:08:30;;;;;;;87.45;36.13;;;22.70;99.90;;;;;;5099774;27;20031;-86
2023/09/12 07:10:57;;;;;;;98.53;35.38;;;22.60;99.90;;;;;;5101395;27;20183;-85
2023/09/12 07:13:23;;;;;;;68.90;32.42;;;22.60;99.90;;;;;;5107653;27;20336;-87
2023/09/12 07:15:50;;;;;;;63.78;31.23;;;22.90;99.90;;;;;;5085123;28;20043;-86
2023/09/12 07:18:16;;;;;;;66.82;33.53;;;22.80;99.90;;;;;;5107584;28;20487;-86
2023/09/12 07:20:42;;;;;;;89.10;36.38;;;23.00;99.90;;;;;;5090302;28;20087;-87
2023/09/12 07:23:08;;;;;;;83.25;34.65;;;22.80;99.90;;;;;;5095033;28;20368;-85
2023/09/12 07:25:40;;;;;;;76.63;34.35;;;22.90;99.90;;;;;;5098679;28;20110;-85
2023/09/12 07:28:07;;;;;;;74.38;36.80;;;23.20;99.90;;;;;;5089046;28;20039;-85
2023/09/12 07:30:33;;;;;;;72.63;34.63;;;23.30;99.90;;;;;;5095638;28;20035;-85
2023/09/12 07:32:59;;;;;;;73.22;34.28;;;23.20;99.90;;;;;;5068065;27;20398;-85
2023/09/12 07:35:26;;;;;;;84.47;35.38;;;23.20;99.90;;;;;;5114429;28;20096;-85
2023/09/12 07:37:52;;;;;;;80.32;37.40;;;23.40;99.90;;;;;;5065841;28;20540;-85
2023/09/12 07:40:17;;;;;;;83.82;40.15;;;23.40;99.90;;;;;;5090765;27;20047;-85
2023/09/12 07:42:44;;;;;;;77.10;39.15;;;23.40;99.90;;;;;;5115832;27;20039;-86
2023/09/12 07:45:11;;;;;;;64.43;39.35;;;23.40;99.90;;;;;;5096470;28;20046;-85
2023/09/12 07:47:37;;;;;;;67.97;38.28;;;23.40;99.90;;;;;;5092166;28;20039;-86
2023/09/12 07:50:04;;;;;;;60.90;36.60;;;23.80;99.90;;;;;;5078204;28;20048;-85
2023/09/12 07:52:30;;;;;;;50.00;34.35;;;23.70;99.90;;;;;;5106369;27;20046;-84
2023/09/12 07:55:02;;;;;;;58.58;36.33;;;23.80;99.90;;;;;;5106608;28;20509;-83
2023/09/12 07:57:29;;;;;;;54.80;35.33;;;24.00;99.90;;;;;;5112727;28;20046;-83
2023/09/12 07:59:56;;;;;;;52.67;34.70;;;24.00;99.90;;;;;;5131078;27;20042;-84
2023/09/12 08:02:21;;;;;;;47.92;32.20;;;24.10;99.90;;;;;;5132410;27;20070;-84
2023/09/12 08:04:49;;;;;;;49.70;33.92;;;24.00;99.90;;;;;;5097707;27;20850;-84
2023/09/12 08:07:15;;;;;;;51.53;33.58;;;24.00;99.90;;;;;;5117016;27;20596;-84
2023/09/12 08:09:53;;;;;;;58.15;34.70;;;24.10;99.90;;;;;;5134709;27;20095;-85
2023/09/12 08:12:20;;;;;;;52.13;34.03;;;24.00;99.90;;;;;;5119243;27;20047;-85
2023/09/12 08:14:46;;;;;;;54.03;34.63;;;23.90;99.90;;;;;;5115910;27;20039;-85
2023/09/12 08:17:13;;;;;;;50.85;33.15;;;23.90;99.90;;;;;;5096757;27;20031;-84
2023/09/12 08:19:39;;;;;;;56.35;34.72;;;23.90;99.90;;;;;;5098351;27;20035;-85
2023/09/12 08:22:07;;;;;;;53.58;35.13;;;24.10;99.90;;;;;;5116192;27;20042;-85
2023/09/12 08:24:33;;;;;;;55.20;37.50;;;24.00;99.90;;;;;;5134033;27;20038;-87
2023/09/12 08:26:59;;;;;;;54.75;36.40;;;23.90;99.90;;;;;;5100986;27;20043;-84
2023/09/12 08:29:29;;;;;;;54.13;35.38;;;23.70;99.90;;;;;;5116731;27;20562;-86
2023/09/12 08:31:55;;;;;;;51.90;33.90;;;23.90;99.90;;;;;;5102648;27;20387;-86
2023/09/12 08:34:21;;;;;;;55.40;34.25;;;24.10;99.90;;;;;;5098152;27;20039;-85
2023/09/12 08:36:47;;;;;;;45.60;30.95;;;24.00;99.90;;;;;;5096579;27;20035;-86
2023/09/12 08:39:18;;;;;;;48.63;32.58;;;23.90;99.90;;;;;;5074333;27;20061;-85
2023/09/12 08:41:46;;;;;;;50.78;33.42;;;24.00;99.90;;;;;;5116096;27;20352;-84
2023/09/12 08:44:13;;;;;;;46.25;31.00;;;24.20;99.90;;;;;;5099086;27;20046;-83
2023/09/12 08:46:42;;;;;;;48.78;31.90;;;24.20;99.90;;;;;;5099491;27;20417;-84
2023/09/12 08:49:09;;;;;;;50.25;32.70;;;24.50;99.90;;;;;;5118228;27;20049;-86
2023/09/12 08:51:37;;;;;;;47.15;31.30;;;24.40;99.90;;;;;;5136224;27;20043;-84
2023/09/12 08:54:04;;;;;;;46.65;32.00;;;24.40;99.90;;;;;;5099653;27;20076;-84
2023/09/12 08:56:32;;;;;;;46.40;30.70;;;24.60;99.90;;;;;;5082230;27;20050;-84
2023/09/12 08:59:06;;;;;;;46.90;31.70;;;24.60;99.90;;;;;;5104634;27;20405;-84
2023/09/12 09:01:33;;;;;;;43.90;30.23;;;24.40;99.90;;;;;;5119066;27;20126;-84
2023/09/12 09:04:02;;;;;;;49.90;33.38;;;24.40;99.90;;;;;;5136691;27;20046;-85
2023/09/12 09:06:30;;;;;;;45.17;30.23;;;24.50;99.90;;;;;;5101611;27;20035;-84
2023/09/12 09:08:56;;;;;;;47.58;31.75;;;24.50;99.90;;;;;;5114348;27;20087;-84
2023/09/12 09:11:22;;;;;;;48.20;32.35;;;24.50;99.90;;;;;;5133118;27;20034;-85
2023/09/12 09:13:48;;;;;;;49.03;32.75;;;24.80;99.90;;;;;;5082055;27;20506;-86
2023/09/12 09:16:15;;;;;;;45.13;30.33;;;24.70;99.90;;;;;;5098448;27;20589;-84
2023/09/12 09:18:51;;;;;;;42.20;29.05;;;24.70;99.90;;;;;;5081898;27;20035;-84
2023/09/12 09:21:24;;;;;;;43.80;31.08;;;24.80;99.90;;;;;;5115768;27;20042;-83
2023/09/12 09:23:51;;;;;;;42.15;31.10;;;25.10;99.90;;;;;;5106735;27;20113;-84
2023/09/12 09:26:17;;;;;;;40.20;29.02;;;24.70;99.90;;;;;;5098724;27;20042;-85
2023/09/12 09:28:42;;;;;;;40.63;28.77;;;24.80;99.90;;;;;;5099105;27;20039;-83
2023/09/12 09:31:11;;;;;;;43.60;30.00;;;24.80;99.90;;;;;;5115407;27;20039;-85
2023/09/12 09:33:38;;;;;;;41.80;28.33;;;24.90;99.90;;;;;;5098554;27;20074;-85
2023/09/12 09:36:05;;;;;;;40.67;30.05;;;25.30;99.90;;;;;;5098345;27;20039;-82
2023/09/12 09:38:33;;;;;;;41.40;28.95;;;25.40;99.90;;;;;;5082013;27;20042;-84
2023/09/12 09:40:59;;;;;;;38.53;29.40;;;25.60;99.90;;;;;;5115475;27;20092;-82
2023/09/12 09:43:25;;;;;;;44.22;31.60;;;25.60;99.90;;;;;;5097894;27;20051;-85
2023/09/12 09:45:51;;;;;;;38.50;29.73;;;25.50;99.90;;;;;;5086267;27;20124;-84
2023/09/12 09:48:21;;;;;;;37.85;27.38;;;25.60;99.90;;;;;;5116162;27;20130;-83
2023/09/12 09:50:47;;;;;;;37.00;26.35;;;25.50;99.90;;;;;;5100199;28;20510;-82
2023/09/12 09:53:13;;;;;;;35.40;26.23;;;25.60;99.90;;;;;;5076911;28;20031;-84
2023/09/12 09:55:38;;;;;;;46.33;30.90;;;25.50;99.90;;;;;;5108510;28;20036;-83
2023/09/12 09:58:07;;;;;;;40.47;29.13;;;25.60;99.90;;;;;;5094373;28;20042;-83
2023/09/12 10:00:40;;;;;;;38.20;27.77;;;25.40;99.90;;;;;;5094351;28;20044;-82
2023/09/12 10:03:06;;;;;;;36.50;27.60;;;25.50;99.90;;;;;;5069727;28;20039;-83
2023/09/12 10:05:33;;;;;;;34.67;26.42;;;25.60;99.90;;;;;;5094177;28;20448;-83
2023/09/12 10:08:02;;;;;;;36.60;27.23;;;25.60;99.90;;;;;;5094406;28;20096;-84
2023/09/12 10:10:30;;;;;;;40.47;27.40;;;25.40;99.90;;;;;;5121685;27;20043;-83
2023/09/12 10:12:58;;;;;;;37.45;27.90;;;25.40;99.90;;;;;;5109214;27;20034;-83
2023/09/12 10:15:29;;;;;;;35.70;25.90;;;25.50;99.90;;;;;;5114225;27;20436;-83
2023/09/12 10:18:00;;;;;;;36.08;26.63;;;25.60;99.90;;;;;;5094043;28;20078;-83
2023/09/12 10:20:34;;;;;;;34.58;26.45;;;25.80;99.90;;;;;;5097462;28;20093;-82
2023/09/12 10:23:10;;;;;;;34.75;24.40;;;25.80;99.90;;;;;;5094720;28;20047;-83
2023/09/12 10:25:37;;;;;;;33.08;23.83;;;26.00;99.90;;;;;;5112034;28;20126;-84
2023/09/12 10:28:06;;;;;;;34.15;25.17;;;26.30;99.90;;;;;;5113798;27;20169;-84
2023/09/12 10:30:34;;;;;;;35.22;26.40;;;26.20;99.90;;;;;;5114891;27;20379;-82
2023/09/12 10:33:05;;;;;;;33.05;24.23;;;26.20;99.90;;;;;;5098457;27;20072;-85
2023/09/12 10:35:32;;;;;;;30.83;22.70;;;26.10;99.90;;;;;;5115720;27;20053;-84
2023/09/12 10:38:06;;;;;;;35.85;23.73;;;26.20;99.90;;;;;;5115457;27;20038;-84
2023/09/12 10:40:36;;;;;;;31.27;22.90;;;26.10;99.90;;;;;;5099364;27;20031;-83
2023/09/12 10:43:05;;;;;;;26.92;21.25;;;26.00;99.90;;;;;;5095532;28;20506;-84
2023/09/12 10:45:35;;;;;;;25.35;21.25;;;26.00;99.90;;;;;;5095102;28;20046;-85
2023/09/12 10:48:01;;;;;;;27.98;21.75;;;26.00;99.90;;;;;;5095824;28;20043;-83
2023/09/12 10:50:28;;;;;;;27.08;21.00;;;26.20;99.90;;;;;;5109181;28;20055;-83
2023/09/12 10:52:53;;;;;;;33.28;23.88;;;26.40;99.90;;;;;;5083239;28;20032;-84
2023/09/12 10:55:19;;;;;;;32.33;24.00;;;26.30;99.90;;;;;;5106010;27;20476;-83
2023/09/12 10:58:04;;;;;;;33.30;22.92;;;26.40;99.90;;;;;;5131493;27;20043;-84
2023/09/12 11:00:34;;;;;;;30.92;22.75;;;26.50;99.90;;;;;;5111850;27;20050;-84
2023/09/12 11:03:27;;;;;;;32.67;23.80;;;26.60;99.90;;;;;;5088189;28;20035;-82
2023/09/12 11:05:55;;;;;;;31.80;22.63;;;26.70;99.90;;;;;;5094348;28;20032;-83
2023/09/12 11:08:21;;;;;;;31.23;23.65;;;26.80;99.90;;;;;;5111538;28;20043;-84
2023/09/12 11:11:21;;;;;;;25.50;20.95;;;26.90;99.90;;;;;;5094964;28;20040;-83
2023/09/12 11:14:02;;;;;;;29.92;23.15;;;26.80;99.90;;;;;;5112225;27;20035;-85
2023/09/12 11:17:07;;;;;;;30.65;22.65;;;26.80;99.90;;;;;;5130924;27;20039;-83
2023/09/12 11:19:49;;;;;;;29.33;23.23;;;26.70;99.90;;;;;;5085268;28;20085;-84
2023/09/12 11:22:30;;;;;;;29.23;22.42;;;26.80;99.90;;;;;;5098760;28;20067;-83
2023/09/12 11:24:57;;;;;;;25.27;21.42;;;26.60;99.90;;;;;;5094023;28;20036;-83
2023/09/12 11:27:49;;;;;;;28.17;21.48;;;26.70;99.90;;;;;;5095310;28;20035;-83
2023/09/12 11:30:16;;;;;;;33.67;23.58;;;26.70;99.90;;;;;;5114504;28;20168;-82
2023/09/12 11:32:45;;;;;;;27.83;21.88;;;26.60;99.90;;;;;;5097840;28;20089;-83
2023/09/12 11:35:12;;;;;;;29.20;22.80;;;26.70;99.90;;;;;;5116261;28;20059;-83
2023/09/12 11:37:38;;;;;;;28.27;23.48;;;26.70;99.90;;;;;;5094173;28;20122;-84
2023/09/12 11:40:25;;;;;;;27.40;21.48;;;26.80;99.90;;;;;;5094627;28;20543;-83
2023/09/12 11:42:51;;;;;;;31.30;24.17;;;26.70;99.90;;;;;;5096580;28;20047;-82
2023/09/12 11:45:21;;;;;;;25.30;22.40;;;26.70;99.90;;;;;;5115512;27;20027;-81
2023/09/12 11:47:48;;;;;;;26.58;21.85;;;26.70;99.90;;;;;;5098341;28;20043;-82
2023/09/12 11:50:36;;;;;;;19.17;14.55;;;26.80;99.90;;;;;;5100106;27;20733;-82
2023/09/12 11:53:07;;;;;;;27.05;21.15;;;26.80;99.90;;;;;;5097302;28;20039;-82
2023/09/12 11:55:46;;;;;;;32.80;23.17;;;26.90;99.90;;;;;;5097696;28;20460;-82
2023/09/12 11:58:17;;;;;;;25.10;20.50;;;27.00;99.90;;;;;;5115109;28;20126;-81
2023/09/12 12:00:51;;;;;;;26.95;20.02;;;27.00;99.90;;;;;;5081952;28;20079;-84
2023/09/12 12:03:19;;;;;;;24.25;19.52;;;26.80;99.90;;;;;;5115358;27;20366;-83
2023/09/12 12:05:46;;;;;;;25.17;19.80;;;26.80;99.90;;;;;;5096648;28;20480;-84
2023/09/12 12:08:21;;;;;;;26.83;19.95;;;26.90;99.90;;;;;;5097858;28;20122;-83
2023/09/12 12:10:51;;;;;;;23.48;18.83;;;27.10;99.90;;;;;;5113656;27;20119;-85
2023/09/12 12:13:18;;;;;;;27.23;20.08;;;27.10;99.90;;;;;;5096440;28;20035;-83
2023/09/12 12:15:44;;;;;;;22.75;19.33;;;27.30;99.90;;;;;;5095981;28;20046;-83
2023/09/12 12:18:10;;;;;;;23.50;19.17;;;27.40;99.90;;;;;;5078799;28;20032;-82
2023/09/12 12:20:36;;;;;;;23.88;18.80;;;27.50;99.90;;;;;;5079767;28;20075;-82
2023/09/12 12:23:02;;;;;;;21.52;17.90;;;27.40;99.90;;;;;;5096295;28;20480;-85
2023/09/12 12:25:34;;;;;;;21.45;17.90;;;27.50;99.90;;;;;;5095802;28;20430;-85
2023/09/12 12:28:00;;;;;;;22.67;18.35;;;27.20;99.90;;;;;;5103250;27;20041;-83
2023/09/12 12:30:30;;;;;;;23.50;17.95;;;27.30;99.90;;;;;;5095818;28;20036;-84
2023/09/12 12:32:57;;;;;;;21.38;16.70;;;27.40;99.90;;;;;;5112504;28;20491;-84
2023/09/12 12:35:23;;;;;;;22.02;16.92;;;27.60;99.90;;;;;;5095867;28;20039;-83
2023/09/12 12:37:51;;;;;;;18.65;15.63;;;27.50;99.90;;;;;;5096700;28;20036;-83